Time;durP1;ratioP1;P1;durP2;ratioP2;P2;SDS_P1;SDS_P2;PMS_P1;PMS_P2;Temp;Humidity;BMP_temperature;BMP_pressure;BME280_temperature;BME280_humidity;BME280_pressure;Samples;Min_cycle;Max_cycle;Signal;HPM_P1;HPM_P2
2023/12/22 00:01:31;;;;;;;13.43;1.50;;;6.50;99.90;;;;;;5048566;28;20032;-68
2023/12/22 00:03:56;;;;;;;19.48;2.35;;;6.40;99.90;;;;;;5046889;28;20462;-69
2023/12/22 00:06:22;;;;;;;22.23;3.28;;;6.20;99.90;;;;;;5048363;28;20036;-69
2023/12/22 00:08:48;;;;;;;24.85;3.22;;;6.20;99.90;;;;;;5031731;28;20418;-69
2023/12/22 00:11:15;;;;;;;27.85;3.38;;;6.20;99.90;;;;;;5047077;28;20262;-68
2023/12/22 00:13:40;;;;;;;23.40;3.10;;;5.80;99.90;;;;;;5046589;28;20619;-69
2023/12/22 00:16:06;;;;;;;34.53;3.88;;;5.30;99.90;;;;;;5047210;28;20655;-68
2023/12/22 00:18:32;;;;;;;45.85;5.65;;;4.90;99.90;;;;;;5031344;28;20313;-67
2023/12/22 00:20:58;;;;;;;45.50;5.85;;;4.60;99.90;;;;;;5032015;28;20419;-68
2023/12/22 00:23:23;;;;;;;35.80;4.90;;;4.50;99.90;;;;;;5030648;28;20040;-67
2023/12/22 00:25:49;;;;;;;35.85;4.70;;;4.70;99.90;;;;;;5047310;28;20272;-68
2023/12/22 00:28:15;;;;;;;30.83;3.80;;;4.80;99.90;;;;;;5046737;28;20077;-67
2023/12/22 00:30:41;;;;;;;32.03;4.32;;;4.90;99.90;;;;;;5046843;28;20352;-68
2023/12/22 00:33:06;;;;;;;26.77;3.38;;;5.00;99.90;;;;;;5029534;28;20040;-67
2023/12/22 00:35:33;;;;;;;27.40;3.10;;;5.20;99.90;;;;;;5032549;28;20558;-68
2023/12/22 00:37:58;;;;;;;28.92;3.47;;;5.40;99.90;;;;;;5032138;28;20818;-68
2023/12/22 00:40:24;;;;;;;30.33;3.08;;;5.40;99.90;;;;;;5051267;28;20036;-68
2023/12/22 00:42:50;;;;;;;33.20;4.43;;;5.50;99.90;;;;;;5050881;28;20051;-68
2023/12/22 00:45:15;;;;;;;34.47;4.40;;;5.50;99.90;;;;;;5034220;28;20116;-68
2023/12/22 00:47:41;;;;;;;33.28;3.90;;;5.60;99.90;;;;;;5051096;28;20047;-68
2023/12/22 00:50:08;;;;;;;36.10;4.97;;;5.70;99.90;;;;;;5033469;28;20051;-68
2023/12/22 00:52:33;;;;;;;36.35;4.00;;;5.80;99.90;;;;;;5033836;28;20044;-69
2023/12/22 00:54:59;;;;;;;29.92;3.72;;;5.90;99.90;;;;;;5033686;28;20091;-68
2023/12/22 00:57:25;;;;;;;18.83;2.05;;;5.80;99.90;;;;;;5050497;28;20047;-68
2023/12/22 00:59:51;;;;;;;20.90;2.10;;;5.80;99.90;;;;;;5026527;28;20052;-69
2023/12/22 01:02:17;;;;;;;18.50;1.85;;;5.60;99.90;;;;;;5049969;28;21243;-68
2023/12/22 01:04:43;;;;;;;17.98;2.00;;;5.50;99.90;;;;;;5033980;28;20119;-68
2023/12/22 01:07:09;;;;;;;27.25;3.22;;;5.50;99.90;;;;;;5034742;28;20029;-68
2023/12/22 01:09:37;;;;;;;29.48;3.42;;;5.60;99.90;;;;;;5049974;28;20199;-68
2023/12/22 01:12:03;;;;;;;26.33;3.22;;;5.70;99.90;;;;;;5033239;28;20036;-67
2023/12/22 01:14:30;;;;;;;25.85;3.58;;;5.90;99.90;;;;;;5050537;28;20343;-68
2023/12/22 01:16:56;;;;;;;31.98;4.05;;;6.00;99.90;;;;;;5050694;28;20258;-67
2023/12/22 01:19:22;;;;;;;42.15;5.90;;;6.20;99.90;;;;;;5033582;28;20545;-68
2023/12/22 01:21:47;;;;;;;32.60;4.07;;;6.20;99.90;;;;;;5034201;28;20044;-68
2023/12/22 01:24:13;;;;;;;31.13;4.35;;;6.30;99.90;;;;;;5034428;28;20078;-68
2023/12/22 01:26:39;;;;;;;26.35;3.80;;;6.40;99.90;;;;;;5048758;28;20158;-67
2023/12/22 01:29:05;;;;;;;32.58;3.65;;;6.70;99.90;;;;;;5049280;28;20195;-68
2023/12/22 01:31:30;;;;;;;32.33;4.22;;;6.80;99.90;;;;;;5048514;28;20381;-68
2023/12/22 01:33:56;;;;;;;26.38;3.60;;;6.90;99.90;;;;;;5032524;28;20046;-68
2023/12/22 01:36:22;;;;;;;25.13;3.88;;;6.90;99.90;;;;;;5032915;28;20410;-68
2023/12/22 01:38:47;;;;;;;23.42;3.35;;;6.80;99.90;;;;;;5049649;28;20043;-68
2023/12/22 01:41:13;;;;;;;39.03;4.43;;;6.80;99.90;;;;;;5033008;28;20059;-69
2023/12/22 01:43:39;;;;;;;26.13;3.63;;;6.80;99.90;;;;;;5050047;28;20131;-69
2023/12/22 01:46:07;;;;;;;35.58;4.40;;;6.80;99.90;;;;;;5031472;28;20098;-68
2023/12/22 01:48:34;;;;;;;26.67;3.88;;;6.80;99.90;;;;;;5050235;28;20225;-68
2023/12/22 01:51:02;;;;;;;29.98;4.15;;;6.90;99.90;;;;;;5049621;28;20135;-68
2023/12/22 01:53:28;;;;;;;32.58;4.05;;;6.90;99.90;;;;;;5033973;28;20040;-69
2023/12/22 01:55:55;;;;;;;35.88;4.53;;;6.90;99.90;;;;;;5048913;28;20478;-68
2023/12/22 01:58:23;;;;;;;33.75;4.70;;;6.90;99.90;;;;;;5049604;28;20138;-68
2023/12/22 02:00:49;;;;;;;25.38;4.05;;;7.00;99.90;;;;;;5042136;28;20040;-69
2023/12/22 02:03:16;;;;;;;26.95;4.90;;;7.00;99.90;;;;;;5048760;28;20040;-68
2023/12/22 02:05:43;;;;;;;28.17;4.25;;;7.10;99.90;;;;;;5048469;28;20044;-68
2023/12/22 02:08:10;;;;;;;24.83;3.10;;;7.20;99.90;;;;;;5047542;28;20059;-69
2023/12/22 02:10:37;;;;;;;28.38;3.50;;;7.40;99.90;;;;;;5048038;28;20182;-68
2023/12/22 02:13:04;;;;;;;35.38;4.82;;;7.40;99.90;;;;;;5015396;28;20044;-68
2023/12/22 02:15:30;;;;;;;28.00;4.43;;;6.80;99.90;;;;;;5048097;28;20524;-68
2023/12/22 02:18:07;;;;;;;32.05;4.30;;;6.50;99.90;;;;;;5047772;28;20128;-68
2023/12/22 02:20:32;;;;;;;22.08;3.20;;;6.20;99.90;;;;;;5048374;28;20553;-68
2023/12/22 02:22:58;;;;;;;22.77;2.83;;;6.20;99.90;;;;;;5048312;28;20044;-69
2023/12/22 02:25:24;;;;;;;20.58;2.53;;;6.10;99.90;;;;;;5048391;28;20765;-68
2023/12/22 02:27:53;;;;;;;14.73;1.63;;;6.20;99.90;;;;;;5047822;28;20044;-67
2023/12/22 02:30:42;;;;;;;21.70;2.55;;;6.30;99.90;;;;;;5033001;28;20055;-68
2023/12/22 02:33:09;;;;;;;16.63;2.42;;;6.30;99.90;;;;;;5050435;28;20044;-68
2023/12/22 02:35:41;;;;;;;23.27;3.15;;;6.40;99.90;;;;;;5047999;28;20320;-68
2023/12/22 02:38:08;;;;;;;27.40;3.50;;;6.50;99.90;;;;;;5023329;28;20625;-68
2023/12/22 02:40:35;;;;;;;26.40;2.70;;;6.50;99.90;;;;;;5014679;28;20071;-69
2023/12/22 02:43:03;;;;;;;29.73;3.65;;;6.60;99.90;;;;;;5048303;28;20045;-68
2023/12/22 02:45:30;;;;;;;27.85;3.67;;;6.70;99.90;;;;;;5047206;28;20044;-67
2023/12/22 02:47:56;;;;;;;35.15;3.65;;;6.80;99.90;;;;;;5030851;28;20043;-68
2023/12/22 02:50:21;;;;;;;31.27;4.03;;;6.70;99.90;;;;;;5048522;28;20505;-68
2023/12/22 02:52:48;;;;;;;30.13;3.65;;;6.80;99.90;;;;;;5017035;28;20068;-68
2023/12/22 02:55:14;;;;;;;25.10;3.50;;;6.80;99.90;;;;;;5031324;28;20705;-68
2023/12/22 02:57:39;;;;;;;28.25;3.65;;;6.70;99.90;;;;;;5047263;28;20044;-68
2023/12/22 03:00:06;;;;;;;23.65;3.20;;;6.70;99.90;;;;;;5037963;28;20037;-68
2023/12/22 03:02:31;;;;;;;21.52;2.60;;;6.80;99.90;;;;;;5031320;28;20483;-69
2023/12/22 03:04:57;;;;;;;20.88;2.92;;;6.90;99.90;;;;;;5047775;28;20128;-68
2023/12/22 03:07:23;;;;;;;24.98;3.35;;;7.00;99.90;;;;;;5048137;28;20259;-68
2023/12/22 03:09:48;;;;;;;20.55;2.42;;;6.90;99.90;;;;;;5049219;28;20064;-68
2023/12/22 03:12:14;;;;;;;18.55;2.05;;;6.70;99.90;;;;;;5031083;28;20522;-68
2023/12/22 03:14:40;;;;;;;18.98;2.15;;;6.60;99.90;;;;;;5031632;28;20044;-68
2023/12/22 03:17:06;;;;;;;19.67;1.95;;;6.30;99.90;;;;;;5047395;28;21294;-68
2023/12/22 03:19:33;;;;;;;26.55;2.85;;;6.20;99.90;;;;;;5032419;28;20032;-68
2023/12/22 03:21:59;;;;;;;16.88;2.38;;;6.20;99.90;;;;;;5018322;28;20407;-68
2023/12/22 03:24:26;;;;;;;28.33;3.72;;;6.10;99.90;;;;;;5032805;28;20591;-68
2023/12/22 03:26:52;;;;;;;27.95;3.60;;;6.10;99.90;;;;;;5048712;28;20075;-68
2023/12/22 03:29:18;;;;;;;28.30;3.78;;;6.30;99.90;;;;;;5032281;28;20032;-68
2023/12/22 03:31:45;;;;;;;26.80;3.13;;;6.40;99.90;;;;;;5047918;28;20036;-69
2023/12/22 03:34:10;;;;;;;16.67;2.40;;;6.40;99.90;;;;;;5017942;28;20095;-68
2023/12/22 03:36:36;;;;;;;19.90;2.50;;;6.20;99.90;;;;;;5048199;28;20553;-68
2023/12/22 03:39:02;;;;;;;24.65;3.08;;;6.10;99.90;;;;;;5065185;28;20041;-68
2023/12/22 03:41:29;;;;;;;31.75;3.35;;;5.90;99.90;;;;;;5048303;28;20064;-68
2023/12/22 03:43:58;;;;;;;27.90;3.05;;;5.90;99.90;;;;;;5048492;28;20058;-68
2023/12/22 03:46:24;;;;;;;27.20;3.80;;;5.80;99.90;;;;;;5031323;28;20033;-68
2023/12/22 03:48:53;;;;;;;31.13;3.90;;;5.80;99.90;;;;;;5016794;28;20048;-68
2023/12/22 03:51:18;;;;;;;29.85;3.72;;;6.10;99.90;;;;;;5048758;28;20079;-68
2023/12/22 03:53:44;;;;;;;28.67;4.05;;;6.10;99.90;;;;;;5048443;28;20465;-69
2023/12/22 03:56:10;;;;;;;32.35;4.28;;;6.30;99.90;;;;;;5046852;28;20240;-68
2023/12/22 03:58:37;;;;;;;32.35;4.65;;;6.40;99.90;;;;;;5030998;28;20284;-68
2023/12/22 04:01:03;;;;;;;31.50;3.65;;;6.50;99.90;;;;;;5025097;28;20050;-68
2023/12/22 04:03:29;;;;;;;27.48;4.10;;;6.50;99.90;;;;;;5013614;28;20052;-69
2023/12/22 04:05:55;;;;;;;30.58;3.30;;;6.30;99.90;;;;;;5045792;28;20210;-68
2023/12/22 04:08:20;;;;;;;27.85;2.60;;;6.20;99.90;;;;;;5031625;28;20405;-69
2023/12/22 04:10:47;;;;;;;20.52;2.78;;;6.00;99.90;;;;;;5049950;28;20472;-68
2023/12/22 04:13:13;;;;;;;23.35;3.25;;;6.10;99.90;;;;;;5049915;28;20048;-69
2023/12/22 04:15:38;;;;;;;26.17;3.28;;;6.10;99.90;;;;;;5051032;28;20506;-68
2023/12/22 04:18:04;;;;;;;25.73;3.80;;;6.20;99.90;;;;;;5019564;28;20478;-67
2023/12/22 04:20:31;;;;;;;23.45;3.42;;;6.30;99.90;;;;;;5051308;28;20426;-67
2023/12/22 04:22:57;;;;;;;26.42;3.72;;;6.10;99.90;;;;;;5050617;28;20032;-67
2023/12/22 04:25:24;;;;;;;25.92;3.50;;;5.90;99.90;;;;;;5034742;28;20044;-69
2023/12/22 04:27:50;;;;;;;22.20;2.65;;;5.80;99.90;;;;;;5051236;28;20049;-68
2023/12/22 04:30:16;;;;;;;29.02;3.50;;;5.90;99.90;;;;;;5034270;28;20124;-68
2023/12/22 04:32:42;;;;;;;28.25;3.88;;;5.90;99.90;;;;;;5034621;28;20044;-68
2023/12/22 04:35:07;;;;;;;27.40;3.80;;;6.10;99.90;;;;;;5050260;28;21188;-68
2023/12/22 04:37:34;;;;;;;33.90;5.22;;;6.20;99.90;;;;;;5051212;28;20556;-68
2023/12/22 04:39:59;;;;;;;33.67;4.97;;;6.40;99.90;;;;;;5049783;28;20123;-69
2023/12/22 04:42:25;;;;;;;35.20;3.65;;;6.50;99.90;;;;;;5049869;28;20041;-68
2023/12/22 04:44:51;;;;;;;31.90;4.40;;;6.60;99.90;;;;;;5050459;28;20040;-68
2023/12/22 04:47:17;;;;;;;35.42;4.57;;;6.70;99.90;;;;;;5050597;28;20151;-68
2023/12/22 04:49:43;;;;;;;35.08;4.95;;;6.80;99.90;;;;;;5035229;28;20486;-68
2023/12/22 04:52:10;;;;;;;30.45;4.57;;;6.70;99.90;;;;;;5040450;28;20044;-67
2023/12/22 04:54:36;;;;;;;29.00;3.50;;;6.70;99.90;;;;;;5050390;28;20098;-68
2023/12/22 04:57:02;;;;;;;32.45;4.50;;;6.70;99.90;;;;;;5033260;28;20048;-68
2023/12/22 04:59:27;;;;;;;24.63;3.30;;;6.70;99.90;;;;;;5049305;28;20079;-68
2023/12/22 05:01:53;;;;;;;29.52;3.45;;;6.70;99.90;;;;;;5050036;28;20488;-68
2023/12/22 05:04:19;;;;;;;29.52;4.07;;;6.90;99.90;;;;;;5034523;28;20037;-68
2023/12/22 05:06:45;;;;;;;33.70;4.00;;;7.00;99.90;;;;;;5034108;28;20041;-69
2023/12/22 05:09:12;;;;;;;37.47;4.53;;;7.10;99.90;;;;;;5039690;28;20486;-68
2023/12/22 05:11:37;;;;;;;34.80;4.60;;;7.10;99.90;;;;;;5032751;28;20041;-68
2023/12/22 05:14:03;;;;;;;34.92;4.63;;;7.20;99.90;;;;;;5034392;28;20040;-68
2023/12/22 05:16:31;;;;;;;33.53;4.55;;;7.20;99.90;;;;;;5032901;28;20093;-68
2023/12/22 05:18:57;;;;;;;33.00;4.68;;;7.20;99.90;;;;;;5049866;28;20730;-68
2023/12/22 05:21:23;;;;;;;40.75;4.75;;;7.20;99.90;;;;;;5051556;28;20348;-68
2023/12/22 05:23:50;;;;;;;33.50;4.38;;;7.20;99.90;;;;;;5050161;28;20036;-67
2023/12/22 05:26:22;;;;;;;32.08;4.80;;;7.30;99.90;;;;;;5032188;28;20075;-68
2023/12/22 05:28:51;;;;;;;26.98;3.63;;;7.30;99.90;;;;;;5049891;28;20134;-68
2023/12/22 05:31:17;;;;;;;37.65;4.95;;;7.30;99.90;;;;;;5051230;28;20343;-69
2023/12/22 05:33:43;;;;;;;21.35;3.15;;;7.30;99.90;;;;;;5034141;28;20037;-68
2023/12/22 05:36:09;;;;;;;28.95;4.30;;;7.30;99.90;;;;;;5034189;28;20043;-67
2023/12/22 05:38:41;;;;;;;31.73;3.70;;;7.30;99.90;;;;;;5032346;28;20045;-68
2023/12/22 05:41:07;;;;;;;26.35;3.50;;;7.30;99.90;;;;;;5050575;28;20063;-68
2023/12/22 05:43:33;;;;;;;22.40;2.92;;;7.30;99.90;;;;;;5050026;28;20036;-68
2023/12/22 05:45:59;;;;;;;31.30;4.25;;;7.40;99.90;;;;;;5051056;28;20219;-68
2023/12/22 05:48:26;;;;;;;31.08;4.18;;;7.30;99.90;;;;;;5050187;28;20085;-68
2023/12/22 05:50:52;;;;;;;28.75;3.67;;;7.30;99.90;;;;;;5050181;28;20047;-68
2023/12/22 05:53:17;;;;;;;25.17;3.65;;;7.30;99.90;;;;;;5049622;28;20457;-68
2023/12/22 05:55:44;;;;;;;29.77;4.10;;;7.40;99.90;;;;;;5032398;28;20793;-68
2023/12/22 05:58:10;;;;;;;28.33;4.60;;;7.30;99.90;;;;;;5049938;28;20122;-68
2023/12/22 06:00:35;;;;;;;30.58;4.32;;;7.30;99.90;;;;;;5048200;28;20797;-68
2023/12/22 06:03:02;;;;;;;31.70;4.15;;;7.30;99.90;;;;;;5033725;28;20040;-68
2023/12/22 06:05:27;;;;;;;27.42;3.42;;;7.30;99.90;;;;;;5032484;28;20039;-68
2023/12/22 06:07:53;;;;;;;26.10;3.22;;;7.30;99.90;;;;;;5048466;28;20048;-68
2023/12/22 06:10:19;;;;;;;30.90;3.10;;;7.50;99.90;;;;;;5020241;28;20285;-68
2023/12/22 06:12:45;;;;;;;23.50;3.25;;;7.50;99.90;;;;;;5049445;28;20043;-68
2023/12/22 06:15:11;;;;;;;25.98;3.70;;;7.50;99.90;;;;;;5048879;28;20044;-69
2023/12/22 06:17:37;;;;;;;24.92;3.00;;;7.50;99.90;;;;;;5049846;28;20560;-68
2023/12/22 06:20:02;;;;;;;24.42;3.17;;;7.50;99.90;;;;;;5049331;28;20520;-68
2023/12/22 06:22:28;;;;;;;25.58;3.83;;;7.60;99.90;;;;;;5021315;28;20041;-68
2023/12/22 06:24:54;;;;;;;22.70;3.20;;;7.60;99.90;;;;;;5049216;28;20085;-69
2023/12/22 06:27:19;;;;;;;24.95;3.85;;;7.60;99.90;;;;;;5047925;28;20505;-68
2023/12/22 06:29:45;;;;;;;28.98;4.65;;;7.50;99.90;;;;;;5048329;28;20040;-69
2023/12/22 06:32:12;;;;;;;31.38;3.85;;;7.50;99.90;;;;;;5048765;28;20059;-67
2023/12/22 06:34:37;;;;;;;24.27;3.22;;;7.50;99.90;;;;;;5049556;28;20399;-68
2023/12/22 06:37:03;;;;;;;29.13;3.40;;;7.50;99.90;;;;;;5015731;28;20044;-69
2023/12/22 06:39:29;;;;;;;28.75;3.42;;;7.60;99.90;;;;;;5031958;28;20040;-68
2023/12/22 06:41:55;;;;;;;30.48;3.50;;;7.60;99.90;;;;;;5049373;28;20546;-68
2023/12/22 06:44:20;;;;;;;21.95;3.30;;;7.60;99.90;;;;;;5031674;28;20045;-68
2023/12/22 06:46:46;;;;;;;27.15;3.60;;;7.60;99.90;;;;;;5032211;28;20047;-68
2023/12/22 06:49:12;;;;;;;27.42;3.30;;;7.60;99.90;;;;;;5048067;28;20740;-68
2023/12/22 06:51:37;;;;;;;32.72;3.88;;;7.60;99.90;;;;;;5032176;28;20043;-67
2023/12/22 06:54:07;;;;;;;25.13;3.25;;;7.70;99.90;;;;;;5047664;28;20524;-69
2023/12/22 06:56:34;;;;;;;26.48;2.97;;;7.70;99.90;;;;;;5031415;28;20037;-68
2023/12/22 06:59:00;;;;;;;17.95;2.95;;;7.60;99.90;;;;;;5048056;28;20083;-67
2023/12/22 07:01:33;;;;;;;18.17;2.20;;;7.60;99.90;;;;;;5048536;28;20128;-68
2023/12/22 07:04:00;;;;;;;23.98;2.72;;;7.60;99.90;;;;;;5019844;28;20037;-68
2023/12/22 07:06:28;;;;;;;30.50;3.85;;;7.60;99.90;;;;;;5048065;28;20110;-67
2023/12/22 07:09:16;;;;;;;25.95;3.65;;;7.60;99.90;;;;;;5047921;28;20189;-68
2023/12/22 07:11:48;;;;;;;22.27;3.15;;;7.70;99.90;;;;;;5050646;28;20855;-68
2023/12/22 07:14:15;;;;;;;23.25;2.20;;;7.70;99.90;;;;;;5033339;28;20059;-67
2023/12/22 07:16:42;;;;;;;15.85;1.85;;;7.40;99.90;;;;;;5031431;28;20044;-68
2023/12/22 07:19:08;;;;;;;16.42;1.58;;;7.20;99.90;;;;;;5047403;28;20048;-68
2023/12/22 07:21:34;;;;;;;12.60;1.27;;;7.10;99.90;;;;;;5019407;28;20418;-67
2023/12/22 07:24:00;;;;;;;16.88;1.92;;;7.00;99.90;;;;;;5049540;28;20531;-69
2023/12/22 07:26:26;;;;;;;13.18;1.58;;;6.90;99.90;;;;;;5049368;28;20040;-67
2023/12/22 07:28:53;;;;;;;17.40;2.03;;;6.90;99.90;;;;;;5048863;28;20323;-67
2023/12/22 07:31:18;;;;;;;20.92;1.75;;;6.80;99.90;;;;;;5049463;28;20509;-68
2023/12/22 07:33:44;;;;;;;21.23;2.10;;;6.70;99.90;;;;;;5047094;28;20309;-68
2023/12/22 07:36:10;;;;;;;21.23;1.83;;;6.60;99.90;;;;;;5046911;28;20117;-68
2023/12/22 07:38:39;;;;;;;11.02;1.40;;;6.60;99.90;;;;;;5047607;28;20040;-67
2023/12/22 07:41:05;;;;;;;14.48;1.40;;;6.50;99.90;;;;;;5048332;28;20479;-68
2023/12/22 07:43:30;;;;;;;16.02;1.63;;;6.40;99.90;;;;;;5032178;28;20759;-68
2023/12/22 07:45:56;;;;;;;17.33;1.80;;;6.40;99.90;;;;;;5017790;28;20232;-68
2023/12/22 07:48:23;;;;;;;14.77;2.10;;;6.40;99.90;;;;;;5047736;28;20469;-67
2023/12/22 07:50:49;;;;;;;15.88;2.15;;;6.30;99.90;;;;;;5031994;28;20036;-68
2023/12/22 07:53:16;;;;;;;16.52;2.05;;;6.30;99.90;;;;;;5049512;28;20215;-68
2023/12/22 07:55:44;;;;;;;19.60;2.67;;;6.40;99.90;;;;;;5032295;28;20086;-69
2023/12/22 07:58:09;;;;;;;23.35;2.20;;;6.40;99.90;;;;;;5017994;28;20071;-68
2023/12/22 08:00:35;;;;;;;19.42;2.85;;;6.40;99.90;;;;;;5047162;28;20467;-68
2023/12/22 08:03:01;;;;;;;26.02;3.10;;;6.30;99.90;;;;;;5047562;28;20041;-68
2023/12/22 08:05:27;;;;;;;20.70;2.22;;;6.40;99.90;;;;;;5028351;28;20045;-67
2023/12/22 08:07:53;;;;;;;20.50;2.20;;;6.40;99.90;;;;;;5029606;28;20498;-67
2023/12/22 08:10:19;;;;;;;15.68;1.90;;;6.50;99.90;;;;;;5018144;28;20181;-68
2023/12/22 08:12:45;;;;;;;18.65;2.38;;;6.50;99.90;;;;;;5047480;28;20113;-68
2023/12/22 08:15:10;;;;;;;20.33;1.77;;;6.40;99.90;;;;;;5031365;28;20124;-67
2023/12/22 08:17:37;;;;;;;16.20;1.88;;;6.50;99.90;;;;;;5047460;28;20063;-67
2023/12/22 08:20:04;;;;;;;15.82;1.58;;;6.60;99.90;;;;;;5048754;28;20379;-67
2023/12/22 08:22:30;;;;;;;15.02;1.48;;;6.70;99.90;;;;;;5048672;28;20216;-68
2023/12/22 08:24:55;;;;;;;19.45;2.45;;;6.90;99.90;;;;;;5048978;28;20094;-67
2023/12/22 08:27:21;;;;;;;21.17;2.30;;;7.00;99.90;;;;;;5048372;28;20032;-67
2023/12/22 08:29:47;;;;;;;22.92;2.53;;;7.00;99.90;;;;;;5048496;28;20587;-67
2023/12/22 08:32:12;;;;;;;16.85;2.58;;;7.10;99.90;;;;;;5047928;28;20044;-66
2023/12/22 08:34:38;;;;;;;24.02;2.60;;;7.00;99.90;;;;;;5032037;28;20052;-68
2023/12/22 08:37:04;;;;;;;27.90;3.13;;;7.00;99.90;;;;;;5032451;28;20078;-66
2023/12/22 08:39:29;;;;;;;24.15;3.03;;;6.90;99.90;;;;;;5048721;28;20159;-66
2023/12/22 08:41:55;;;;;;;24.05;2.95;;;6.90;99.90;;;;;;5031601;28;20062;-69
2023/12/22 08:44:21;;;;;;;23.55;3.25;;;7.00;99.90;;;;;;5032095;28;20127;-67
2023/12/22 08:46:46;;;;;;;25.77;3.50;;;7.00;99.90;;;;;;5048765;28;20051;-69
2023/12/22 08:49:12;;;;;;;24.25;2.92;;;7.00;99.90;;;;;;5048657;28;20040;-66
2023/12/22 08:51:38;;;;;;;21.67;2.78;;;7.10;99.90;;;;;;5031807;28;20051;-69
2023/12/22 08:54:04;;;;;;;26.10;3.03;;;7.10;99.90;;;;;;5048355;28;20052;-69
2023/12/22 08:56:30;;;;;;;26.40;3.40;;;7.20;99.90;;;;;;5034543;28;20085;-67
2023/12/22 08:58:58;;;;;;;27.05;3.67;;;7.10;99.90;;;;;;5035369;28;20375;-66
2023/12/22 09:01:24;;;;;;;26.75;3.83;;;7.10;99.90;;;;;;5051318;28;20271;-67
2023/12/22 09:03:50;;;;;;;24.92;3.78;;;7.20;99.90;;;;;;5051151;28;20036;-66
2023/12/22 09:06:21;;;;;;;29.92;3.47;;;7.20;99.90;;;;;;5051265;28;20080;-67
2023/12/22 09:08:48;;;;;;;36.65;4.53;;;7.20;99.90;;;;;;5034862;28;20355;-66
2023/12/22 09:11:16;;;;;;;29.27;3.22;;;7.20;99.90;;;;;;5050902;28;20071;-67
2023/12/22 09:13:42;;;;;;;37.38;4.10;;;7.20;99.90;;;;;;5051081;28;20119;-66
2023/12/22 09:16:08;;;;;;;32.00;3.38;;;7.20;99.90;;;;;;5051824;28;20062;-67
2023/12/22 09:18:34;;;;;;;32.90;3.78;;;7.20;99.90;;;;;;5051318;28;20319;-66
2023/12/22 09:21:01;;;;;;;29.63;4.00;;;7.30;99.90;;;;;;5026711;28;20044;-67
2023/12/22 09:23:27;;;;;;;32.83;3.67;;;7.30;99.90;;;;;;5050726;28;20032;-66
2023/12/22 09:25:52;;;;;;;30.95;3.60;;;7.30;99.90;;;;;;5034903;28;20488;-69
2023/12/22 09:28:18;;;;;;;22.45;2.70;;;7.40;99.90;;;;;;5051062;28;20054;-68
2023/12/22 09:30:44;;;;;;;32.25;3.50;;;7.40;99.90;;;;;;5050812;28;20045;-69
2023/12/22 09:33:10;;;;;;;22.20;2.55;;;7.40;99.90;;;;;;5049244;28;20053;-67
2023/12/22 09:35:36;;;;;;;29.05;3.55;;;7.50;99.90;;;;;;5051148;28;20048;-67
2023/12/22 09:38:03;;;;;;;22.83;3.05;;;7.60;99.90;;;;;;5019880;28;20252;-67
2023/12/22 09:40:29;;;;;;;36.28;3.85;;;7.60;99.90;;;;;;5034138;28;20029;-67
2023/12/22 09:42:55;;;;;;;25.75;2.83;;;7.70;99.90;;;;;;5049581;28;20033;-67
2023/12/22 09:45:21;;;;;;;23.05;3.30;;;7.70;99.90;;;;;;5033634;28;20059;-68
2023/12/22 09:47:52;;;;;;;39.13;4.40;;;7.80;99.90;;;;;;5034373;28;20798;-68
2023/12/22 09:50:19;;;;;;;27.98;3.47;;;7.80;99.90;;;;;;5051751;28;20036;-67
2023/12/22 09:52:45;;;;;;;26.98;3.72;;;7.80;99.90;;;;;;5019057;28;20486;-68
2023/12/22 09:55:13;;;;;;;28.58;2.92;;;7.70;99.90;;;;;;5050725;28;20032;-68
2023/12/22 09:57:41;;;;;;;29.52;3.20;;;7.80;99.90;;;;;;5050412;28;20418;-68
2023/12/22 10:00:12;;;;;;;27.67;3.53;;;7.90;99.90;;;;;;5033285;28;20324;-68
2023/12/22 10:02:39;;;;;;;26.75;3.45;;;7.90;99.90;;;;;;5050597;28;20044;-68
2023/12/22 10:05:05;;;;;;;27.83;3.42;;;7.90;99.90;;;;;;5019022;28;20526;-68
2023/12/22 10:07:33;;;;;;;26.15;2.88;;;8.00;99.90;;;;;;5049356;28;20150;-68
2023/12/22 10:10:00;;;;;;;27.63;3.33;;;8.00;99.90;;;;;;5033883;28;20570;-69
2023/12/22 10:12:28;;;;;;;34.58;3.65;;;8.10;99.90;;;;;;5050266;28;20335;-68
2023/12/22 10:14:56;;;;;;;34.20;4.00;;;8.10;99.90;;;;;;5049670;28;20055;-68
2023/12/22 10:17:22;;;;;;;25.63;3.25;;;8.10;99.90;;;;;;5051043;28;20048;-69
2023/12/22 10:19:48;;;;;;;32.55;4.05;;;8.10;99.90;;;;;;5051972;28;20986;-68
2023/12/22 10:22:13;;;;;;;30.85;3.50;;;8.00;99.90;;;;;;5033040;28;20100;-68
2023/12/22 10:24:42;;;;;;;32.03;3.90;;;8.10;99.90;;;;;;5032751;28;20119;-68
2023/12/22 10:27:08;;;;;;;29.52;3.72;;;8.10;99.90;;;;;;5049802;28;20109;-69
2023/12/22 10:29:34;;;;;;;36.45;3.85;;;8.10;99.90;;;;;;5016930;28;20180;-69
2023/12/22 10:32:02;;;;;;;28.58;3.33;;;8.10;99.90;;;;;;5032548;28;20124;-68
2023/12/22 10:34:29;;;;;;;25.75;3.10;;;8.10;99.90;;;;;;5017643;28;20036;-68
2023/12/22 10:36:54;;;;;;;28.98;3.35;;;8.10;99.90;;;;;;5048978;28;20147;-69
2023/12/22 10:39:23;;;;;;;29.73;2.80;;;8.10;99.90;;;;;;5048918;28;20267;-69
2023/12/22 10:41:51;;;;;;;26.33;3.15;;;8.10;99.90;;;;;;5050000;28;20051;-69
2023/12/22 10:44:18;;;;;;;21.48;2.63;;;8.10;99.90;;;;;;5032914;28;20036;-69
2023/12/22 10:46:43;;;;;;;31.08;2.72;;;8.10;99.90;;;;;;5032636;28;20046;-68
2023/12/22 10:49:09;;;;;;;22.02;2.53;;;8.10;99.90;;;;;;5049237;28;20418;-68
2023/12/22 10:51:35;;;;;;;22.02;2.90;;;8.10;99.90;;;;;;5048694;28;20538;-69
2023/12/22 10:54:00;;;;;;;32.55;3.22;;;8.20;99.90;;;;;;5049019;28;20336;-69
2023/12/22 10:56:28;;;;;;;24.38;3.00;;;8.20;99.90;;;;;;5048497;28;20234;-68
2023/12/22 10:58:53;;;;;;;24.38;3.50;;;8.20;99.90;;;;;;5048897;28;20347;-68
2023/12/22 11:01:21;;;;;;;27.45;2.78;;;8.20;99.90;;;;;;5048981;28;20152;-69
2023/12/22 11:03:51;;;;;;;20.05;2.33;;;8.30;99.90;;;;;;5048224;28;20256;-69
2023/12/22 11:06:17;;;;;;;29.23;3.13;;;8.30;99.90;;;;;;5049026;28;20553;-70
2023/12/22 11:08:44;;;;;;;26.27;2.30;;;8.30;99.90;;;;;;5032264;28;20279;-68
2023/12/22 11:11:20;;;;;;;27.88;2.70;;;8.40;99.90;;;;;;5048030;28;20106;-69
2023/12/22 11:13:47;;;;;;;23.13;2.67;;;8.30;99.90;;;;;;5032183;28;20533;-69
2023/12/22 11:16:15;;;;;;;25.35;2.72;;;8.40;99.90;;;;;;5049153;28;20040;-68
2023/12/22 11:18:42;;;;;;;23.45;2.83;;;8.40;99.90;;;;;;5049071;28;20049;-68
2023/12/22 11:21:09;;;;;;;28.05;3.05;;;8.40;99.90;;;;;;5049086;28;20681;-68
2023/12/22 11:23:37;;;;;;;27.25;2.80;;;8.40;99.90;;;;;;5048119;28;20124;-69
2023/12/22 11:26:04;;;;;;;24.15;2.58;;;8.40;99.90;;;;;;5032369;28;20052;-68
2023/12/22 11:28:32;;;;;;;34.67;3.15;;;8.30;99.90;;;;;;5031319;28;20064;-69
2023/12/22 11:31:01;;;;;;;21.77;2.47;;;8.40;99.90;;;;;;5032350;28;20048;-68
2023/12/22 11:33:28;;;;;;;21.50;2.10;;;8.40;99.90;;;;;;5032405;28;20063;-66
2023/12/22 11:35:56;;;;;;;29.80;2.78;;;8.30;99.90;;;;;;5048648;28;20286;-67
2023/12/22 11:38:22;;;;;;;22.85;3.30;;;8.30;99.90;;;;;;5050001;28;20052;-69
2023/12/22 11:40:52;;;;;;;27.23;2.80;;;8.30;99.90;;;;;;5031421;28;20294;-66
2023/12/22 11:43:19;;;;;;;21.95;2.40;;;8.30;99.90;;;;;;5049481;28;20083;-68
2023/12/22 11:45:44;;;;;;;28.88;3.20;;;8.30;99.90;;;;;;5031532;28;20059;-68
2023/12/22 11:48:11;;;;;;;22.13;2.40;;;8.30;99.90;;;;;;5032185;28;20056;-68
2023/12/22 11:50:37;;;;;;;30.40;2.47;;;8.40;99.90;;;;;;5032906;28;20846;-68
2023/12/22 11:53:23;;;;;;;28.38;3.08;;;8.30;99.90;;;;;;5033539;28;20501;-68
2023/12/22 11:56:00;;;;;;;24.73;3.97;;;8.40;99.90;;;;;;5049285;28;20115;-68
2023/12/22 11:58:36;;;;;;;32.92;3.10;;;8.40;99.90;;;;;;5047934;28;20078;-67
2023/12/22 12:01:05;;;;;;;24.95;2.40;;;8.40;99.90;;;;;;5048569;28;20045;-67
2023/12/22 12:03:32;;;;;;;22.70;2.55;;;8.40;99.90;;;;;;5048123;28;20079;-68
2023/12/22 12:06:15;;;;;;;25.38;2.22;;;8.40;99.90;;;;;;5048430;28;20109;-67
2023/12/22 12:08:41;;;;;;;16.48;1.92;;;8.40;99.90;;;;;;5040612;28;20047;-66
2023/12/22 12:11:07;;;;;;;20.65;1.73;;;8.40;99.90;;;;;;5065335;28;20107;-66
2023/12/22 12:13:33;;;;;;;17.25;1.88;;;8.40;99.90;;;;;;5049125;28;20032;-67
2023/12/22 12:16:01;;;;;;;17.15;2.20;;;8.40;99.90;;;;;;5031406;28;20348;-67
2023/12/22 12:18:32;;;;;;;22.13;2.30;;;8.40;99.90;;;;;;5031200;28;20052;-67
2023/12/22 12:20:57;;;;;;;21.13;2.35;;;8.30;99.90;;;;;;5048606;28;20036;-67
2023/12/22 12:23:24;;;;;;;17.30;2.10;;;8.40;99.90;;;;;;5053668;28;20032;-68
2023/12/22 12:25:50;;;;;;;23.75;2.92;;;8.30;99.90;;;;;;5016367;28;20363;-67
2023/12/22 12:28:18;;;;;;;23.17;3.10;;;8.30;99.90;;;;;;5032157;28;20380;-67
2023/12/22 12:30:45;;;;;;;18.00;1.75;;;8.30;99.90;;;;;;5032623;28;20048;-67
2023/12/22 12:33:13;;;;;;;24.20;2.33;;;8.30;99.90;;;;;;5044357;28;20045;-68
2023/12/22 12:35:40;;;;;;;19.55;1.90;;;8.30;99.90;;;;;;5035807;28;20049;-68
2023/12/22 12:38:06;;;;;;;18.75;1.90;;;8.20;99.90;;;;;;5051422;28;20337;-68
2023/12/22 12:40:34;;;;;;;21.42;2.10;;;8.20;99.90;;;;;;5050653;28;20032;-67
2023/12/22 12:43:01;;;;;;;26.10;2.75;;;8.30;99.90;;;;;;5051132;28;20588;-68
2023/12/22 12:45:27;;;;;;;22.52;2.20;;;8.20;99.90;;;;;;5034391;28;20041;-68